Time;durP1;ratioP1;P1;durP2;ratioP2;P2;SDS_P1;SDS_P2;PMS_P1;PMS_P2;Temp;Humidity;BMP_temperature;BMP_pressure;BME280_temperature;BME280_humidity;BME280_pressure;Samples;Min_cycle;Max_cycle;Signal;HPM_P1;HPM_P2
2023/04/12 00:02:34;;;;;;;;;;;;;;;;;;5046322;28;19923;-78
2023/04/12 00:05:21;;;;;;;;;;;;;;;;;;5062364;28;19934;-78
2023/04/12 00:08:09;;;;;;;;;;;;;;;;;;5061562;28;19924;-78
2023/04/12 00:10:56;;;;;;;;;;;;;;;;;;5057268;28;20328;-78
2023/04/12 00:13:42;;;;;;;;;;;;;;;;;;5051370;28;19917;-78
2023/04/12 00:16:29;;;;;;;;;;;;;;;;;;5060956;28;19913;-78
2023/04/12 00:19:16;;;;;;;;;;;;;;;;;;5043057;28;19939;-78
2023/04/12 00:22:02;;;;;;;;;;;;;;;;;;5055133;28;19913;-80
2023/04/12 00:24:49;;;;;;;;;;;;;;;;;;5049098;28;19931;-78
2023/04/12 00:27:35;;;;;;;;;;;;;;;;;;5036993;28;19923;-79
2023/04/12 00:30:22;;;;;;;;;;;;;;;;;;5052175;28;20495;-79
2023/04/12 00:33:08;;;;;;;;;;;;;;;;;;5046868;28;19935;-78
2023/04/12 00:35:55;;;;;;;;;;;;;;;;;;5043383;28;19917;-79
2023/04/12 00:38:41;;;;;;;;;;;;;;;;;;5042363;28;19925;-79
2023/04/12 00:41:28;;;;;;;;;;;;;;;;;;5027369;28;19913;-79
2023/04/12 00:44:16;;;;;;;;;;;;;;;;;;5040322;28;19925;-79
2023/04/12 00:47:04;;;;;;;;;;;;;;;;;;5053562;28;19912;-79
2023/04/12 00:49:50;;;;;;;;;;;;;;;;;;5047774;28;20654;-79
2023/04/12 00:52:40;;;;;;;;;;;;;;;;;;5056360;28;19916;-80
2023/04/12 00:55:26;;;;;;;;;;;;;;;;;;5009111;28;19924;-79
2023/04/12 00:58:13;;;;;;;;;;;;;;;;;;5041130;28;19923;-79
2023/04/12 01:01:00;;;;;;;;;;;;;;;;;;5031216;28;19924;-78
2023/04/12 01:03:46;;;;;;;;;;;;;;;;;;5051779;28;19925;-78
2023/04/12 01:06:34;;;;;;;;;;;;;;;;;;5052778;28;20366;-78
2023/04/12 01:09:20;;;;;;;;;;;;;;;;;;5060098;28;20686;-78
2023/04/12 01:12:07;;;;;;;;;;;;;;;;;;5023003;28;19913;-78
2023/04/12 01:14:54;;;;;;;;;;;;;;;;;;5043789;28;19917;-78
2023/04/12 01:17:40;;;;;;;;;;;;;;;;;;5030032;28;19936;-78
2023/04/12 01:20:27;;;;;;;;;;;;;;;;;;5014663;28;20272;-78
2023/04/12 01:23:14;;;;;;;;;;;;;;;;;;5019528;28;19921;-78
2023/04/12 01:26:01;;;;;;;;;;;;;;;;;;5053250;28;19929;-78
2023/04/12 01:28:47;;;;;;;;;;;;;;;;;;5041859;28;19913;-78
2023/04/12 01:31:34;;;;;;;;;;;;;;;;;;5045605;28;19913;-78
2023/04/12 01:34:20;;;;;;;;;;;;;;;;;;5055960;28;19917;-79
2023/04/12 01:37:07;;;;;;;;;;;;;;;;;;5058740;28;19913;-78
2023/04/12 01:39:53;;;;;;;;;;;;;;;;;;5056220;28;19927;-78
2023/04/12 01:42:40;;;;;;;;;;;;;;;;;;5061423;28;19923;-79
2023/04/12 01:45:26;;;;;;;;;;;;;;;;;;5022433;28;19926;-80
2023/04/12 01:48:13;;;;;;;;;;;;;;;;;;5050460;28;19913;-79
2023/04/12 01:51:00;;;;;;;;;;;;;;;;;;5049274;28;19923;-78
2023/04/12 01:53:47;;;;;;;;;;;;;;;;;;5045044;28;19917;-79
2023/04/12 01:56:33;;;;;;;;;;;;;;;;;;5052020;28;19917;-79
2023/04/12 01:59:19;;;;;;;;;;;;;;;;;;5051883;28;19923;-78
2023/04/12 02:02:06;;;;;;;;;;;;;;;;;;5038361;28;19956;-78
2023/04/12 02:04:52;;;;;;;;;;;;;;;;;;5042711;28;19928;-78
2023/04/12 02:07:39;;;;;;;;;;;;;;;;;;5055013;28;19916;-80
2023/04/12 02:10:25;;;;;;;;;;;;;;;;;;5046790;28;20015;-78
2023/04/12 02:13:12;;;;;;;;;;;;;;;;;;5042792;28;19917;-78
2023/04/12 02:16:01;;;;;;;;;;;;;;;;;;5050946;28;20413;-78
2023/04/12 02:18:47;;;;;;;;;;;;;;;;;;5051687;28;19928;-78
2023/04/12 02:21:34;;;;;;;;;;;;;;;;;;5033717;28;19913;-78
2023/04/12 02:24:20;;;;;;;;;;;;;;;;;;5038481;28;20752;-79
2023/04/12 02:27:07;;;;;;;;;;;;;;;;;;5050292;28;19943;-81
2023/04/12 02:29:53;;;;;;;;;;;;;;;;;;5060793;28;19916;-79
2023/04/12 02:32:42;;;;;;;;;;;;;;;;;;5023326;28;19917;-79
2023/04/12 02:35:29;;;;;;;;;;;;;;;;;;5037541;28;20094;-79
2023/04/12 02:38:16;;;;;;;;;;;;;;;;;;5037587;28;19917;-79
2023/04/12 02:41:02;;;;;;;;;;;;;;;;;;5046799;28;19925;-79
2023/04/12 02:43:49;;;;;;;;;;;;;;;;;;5053137;28;19924;-79
2023/04/12 02:46:35;;;;;;;;;;;;;;;;;;5060247;28;19929;-79
2023/04/12 02:49:22;;;;;;;;;;;;;;;;;;5044211;28;19929;-79
2023/04/12 02:52:08;;;;;;;;;;;;;;;;;;5043315;28;20337;-79
2023/04/12 02:54:55;;;;;;;;;;;;;;;;;;5034024;28;20257;-81
2023/04/12 02:57:41;;;;;;;;;;;;;;;;;;5046032;28;19951;-78
2023/04/12 03:00:28;;;;;;;;;;;;;;;;;;5038732;28;20265;-78
2023/04/12 03:03:16;;;;;;;;;;;;;;;;;;5018768;28;20376;-79
2023/04/12 03:06:03;;;;;;;;;;;;;;;;;;5037605;28;19933;-78
2023/04/12 03:08:49;;;;;;;;;;;;;;;;;;5057887;28;19917;-78
2023/04/12 03:11:36;;;;;;;;;;;;;;;;;;5064238;28;19924;-79
2023/04/12 03:14:22;;;;;;;;;;;;;;;;;;5057117;28;19927;-77
2023/04/12 03:17:09;;;;;;;;;;;;;;;;;;5031602;28;19921;-79
2023/04/12 03:19:57;;;;;;;;;;;;;;;;;;5039557;28;19940;-80
2023/04/12 03:22:45;;;;;;;;;;;;;;;;;;5036367;28;25378;-79
2023/04/12 03:25:32;;;;;;;;;;;;;;;;;;5033481;28;19929;-78
2023/04/12 03:28:18;;;;;;;;;;;;;;;;;;5023885;28;19923;-79
2023/04/12 03:31:05;;;;;;;;;;;;;;;;;;5063900;28;20328;-82
2023/04/12 03:33:51;;;;;;;;;;;;;;;;;;5072937;28;19919;-83
2023/04/12 03:39:15;;;;;;;;;;;;;;;;;;5079669;22;20953;-78
2023/04/12 03:42:02;;;;;;;;;;;;;;;;;;5064345;28;19932;-79
2023/04/12 03:44:48;;;;;;;;;;;;;;;;;;5053604;28;19973;-77
2023/04/12 03:47:35;;;;;;;;;;;;;;;;;;5071944;28;19927;-77
2023/04/12 03:50:22;;;;;;;;;;;;;;;;;;5082459;28;19924;-77
2023/04/12 03:53:09;;;;;;;;;;;;;;;;;;5079126;28;19918;-77
2023/04/12 03:55:55;;;;;;;;;;;;;;;;;;5053863;28;19920;-77
2023/04/12 03:58:42;;;;;;;;;;;;;;;;;;5035868;28;19928;-76
2023/04/12 04:01:28;;;;;;;;;;;;;;;;;;5065906;28;19912;-76
2023/04/12 04:04:15;;;;;;;;;;;;;;;;;;5046346;28;20475;-76
2023/04/12 04:07:02;;;;;;;;;;;;;;;;;;5071747;28;19927;-76
2023/04/12 04:09:49;;;;;;;;;;;;;;;;;;5082646;28;20299;-77
2023/04/12 04:12:36;;;;;;;;;;;;;;;;;;5062867;28;19920;-77
2023/04/12 04:15:22;;;;;;;;;;;;;;;;;;5080606;28;20465;-78
2023/04/12 04:18:09;;;;;;;;;;;;;;;;;;5063308;28;19920;-78
2023/04/12 04:20:55;;;;;;;;;;;;;;;;;;5055922;28;20576;-78
2023/04/12 04:23:46;;;;;;;;;;;;;;;;;;5046749;28;19924;-78
2023/04/12 04:26:33;;;;;;;;;;;;;;;;;;5057386;28;19921;-78
2023/04/12 04:29:19;;;;;;;;;;;;;;;;;;5054673;28;19917;-78
2023/04/12 04:32:06;;;;;;;;;;;;;;;;;;5073698;28;20371;-78
2023/04/12 04:34:52;;;;;;;;;;;;;;;;;;5075831;28;19919;-78
2023/04/12 04:37:39;;;;;;;;;;;;;;;;;;5070455;28;20666;-78
2023/04/12 04:40:26;;;;;;;;;;;;;;;;;;5063580;28;19952;-78
2023/04/12 04:43:12;;;;;;;;;;;;;;;;;;5076081;28;20392;-78
2023/04/12 04:45:59;;;;;;;;;;;;;;;;;;5064163;28;20335;-79
2023/04/12 04:48:46;;;;;;;;;;;;;;;;;;5085455;28;19922;-78
2023/04/12 04:51:33;;;;;;;;;;;;;;;;;;5062467;28;19920;-78
2023/04/12 04:54:19;;;;;;;;;;;;;;;;;;5055428;28;19927;-78
2023/04/12 04:57:10;;;;;;;;;;;;;;;;;;5079284;28;20479;-78
2023/04/12 04:59:56;;;;;;;;;;;;;;;;;;5084317;28;19940;-78
2023/04/12 05:02:44;;;;;;;;;;;;;;;;;;5069819;28;19927;-78
2023/04/12 05:05:31;;;;;;;;;;;;;;;;;;5061969;28;19925;-79
2023/04/12 05:08:17;;;;;;;;;;;;;;;;;;5065228;28;19921;-78
2023/04/12 05:11:04;;;;;;;;;;;;;;;;;;5072820;28;19920;-78
2023/04/12 05:13:50;;;;;;;;;;;;;;;;;;5054878;28;19923;-78
2023/04/12 05:16:37;;;;;;;;;;;;;;;;;;5058767;28;19917;-77
2023/04/12 05:19:23;;;;;;;;;;;;;;;;;;5069829;28;20332;-78
2023/04/12 05:22:10;;;;;;;;;;;;;;;;;;5065290;28;19927;-78
2023/04/12 05:24:57;;;;;;;;;;;;;;;;;;5059177;28;19942;-77
2023/04/12 05:27:44;;;;;;;;;;;;;;;;;;5075619;28;19920;-77
2023/04/12 05:30:31;;;;;;;;;;;;;;;;;;5086653;28;19912;-77
2023/04/12 05:33:17;;;;;;;;;;;;;;;;;;5066705;28;19917;-77
2023/04/12 05:36:03;;;;;;;;;;;;;;;;;;5078698;28;19951;-77
2023/04/12 05:38:51;;;;;;;;;;;;;;;;;;5080203;28;19928;-77
2023/04/12 05:41:37;;;;;;;;;;;;;;;;;;5068773;28;20383;-77
2023/04/12 05:44:24;;;;;;;;;;;;;;;;;;5082103;28;19932;-77
2023/04/12 05:47:11;;;;;;;;;;;;;;;;;;5073062;28;19926;-77
2023/04/12 05:49:57;;;;;;;;;;;;;;;;;;5080096;28;19924;-77
2023/04/12 05:52:44;;;;;;;;;;;;;;;;;;5062643;28;19920;-77
2023/04/12 05:55:30;;;;;;;;;;;;;;;;;;5059713;28;19928;-77
2023/04/12 05:58:17;;;;;;;;;;;;;;;;;;5072003;28;19923;-77
2023/04/12 06:01:03;;;;;;;;;;;;;;;;;;5052025;28;19920;-77
2023/04/12 06:03:50;;;;;;;;;;;;;;;;;;5072611;28;20302;-78
2023/04/12 06:06:36;;;;;;;;;;;;;;;;;;5067816;28;19921;-78
2023/04/12 06:09:23;;;;;;;;;;;;;;;;;;5081740;28;20342;-77
2023/04/12 06:12:09;;;;;;;;;;;;;;;;;;5084079;28;19916;-78
2023/04/12 06:14:56;;;;;;;;;;;;;;;;;;5078701;28;19950;-77
2023/04/12 06:17:42;;;;;;;;;;;;;;;;;;5088393;28;19923;-77
2023/04/12 06:20:29;;;;;;;;;;;;;;;;;;5069647;28;19916;-77
2023/04/12 06:23:18;;;;;;;;;;;;;;;;;;5062417;28;20392;-77
2023/04/12 06:26:04;;;;;;;;;;;;;;;;;;5073397;28;19928;-78
2023/04/12 06:28:51;;;;;;;;;;;;;;;;;;5082883;28;19948;-78
2023/04/12 06:31:37;;;;;;;;;;;;;;;;;;5075476;28;19965;-78
2023/04/12 06:34:24;;;;;;;;;;;;;;;;;;5082988;28;20405;-77
2023/04/12 06:37:10;;;;;;;;;;;;;;;;;;5080095;28;19921;-79
2023/04/12 06:39:57;;;;;;;;;;;;;;;;;;5063026;28;19927;-78
2023/04/12 06:42:43;;;;;;;;;;;;;;;;;;5068100;28;19919;-78
2023/04/12 06:45:30;;;;;;;;;;;;;;;;;;5068949;28;19947;-79
2023/04/12 06:48:17;;;;;;;;;;;;;;;;;;5077159;28;19916;-78
2023/04/12 06:51:03;;;;;;;;;;;;;;;;;;5089978;28;19938;-78
2023/04/12 06:53:50;;;;;;;;;;;;;;;;;;5074021;28;20377;-78
2023/04/12 06:56:36;;;;;;;;;;;;;;;;;;5068435;28;19922;-78
2023/04/12 06:59:23;;;;;;;;;;;;;;;;;;5072740;28;19924;-78
2023/04/12 07:02:09;;;;;;;;;;;;;;;;;;5084482;28;19923;-78
2023/04/12 07:04:56;;;;;;;;;;;;;;;;;;5080296;28;20625;-78
2023/04/12 07:07:42;;;;;;;;;;;;;;;;;;5078043;28;19916;-78
2023/04/12 07:10:29;;;;;;;;;;;;;;;;;;5077075;28;20272;-78
2023/04/12 07:13:15;;;;;;;;;;;;;;;;;;5066886;28;19924;-78
2023/04/12 07:16:02;;;;;;;;;;;;;;;;;;5069103;28;19912;-78
2023/04/12 07:18:48;;;;;;;;;;;;;;;;;;5072725;28;20385;-78
2023/04/12 07:21:35;;;;;;;;;;;;;;;;;;5081996;28;20397;-78
2023/04/12 07:24:21;;;;;;;;;;;;;;;;;;5074095;28;19981;-78
2023/04/12 07:27:09;;;;;;;;;;;;;;;;;;5078524;28;19920;-78
2023/04/12 07:29:57;;;;;;;;;;;;;;;;;;5072905;28;20523;-78
2023/04/12 07:32:47;;;;;;;;;;;;;;;;;;5077888;28;19927;-78
2023/04/12 07:35:34;;;;;;;;;;;;;;;;;;5073555;28;19916;-78
2023/04/12 07:38:20;;;;;;;;;;;;;;;;;;5081270;28;19970;-78
2023/04/12 07:41:07;;;;;;;;;;;;;;;;;;5081122;28;19916;-78
2023/04/12 07:43:53;;;;;;;;;;;;;;;;;;5079456;28;19951;-78
2023/04/12 07:46:40;;;;;;;;;;;;;;;;;;5081718;28;19931;-78
2023/04/12 07:49:27;;;;;;;;;;;;;;;;;;5081665;28;19920;-78
2023/04/12 07:52:13;;;;;;;;;;;;;;;;;;5073766;28;19922;-78
2023/04/12 07:55:00;;;;;;;;;;;;;;;;;;5081359;28;19916;-78
2023/04/12 07:57:47;;;;;;;;;;;;;;;;;;5084240;28;19916;-78
2023/04/12 08:00:33;;;;;;;;;;;;;;;;;;5082507;28;19924;-78
2023/04/12 08:03:19;;;;;;;;;;;;;;;;;;5074785;28;19924;-78
2023/04/12 08:06:06;;;;;;;;;;;;;;;;;;5076778;28;19932;-79
2023/04/12 08:08:53;;;;;;;;;;;;;;;;;;5068286;28;19920;-78
2023/04/12 08:11:39;;;;;;;;;;;;;;;;;;5053158;28;19912;-78
2023/04/12 08:14:25;;;;;;;;;;;;;;;;;;5077014;28;19916;-78
2023/04/12 08:17:12;;;;;;;;;;;;;;;;;;5073128;28;20388;-78
2023/04/12 08:19:58;;;;;;;;;;;;;;;;;;5075892;28;19916;-78
2023/04/12 08:22:45;;;;;;;;;;;;;;;;;;5077642;28;20290;-78
2023/04/12 08:25:32;;;;;;;;;;;;;;;;;;5065042;28;19924;-78
2023/04/12 08:28:18;;;;;;;;;;;;;;;;;;5083808;28;20387;-78
2023/04/12 08:31:06;;;;;;;;;;;;;;;;;;5072477;28;19916;-77
2023/04/12 08:33:52;;;;;;;;;;;;;;;;;;5083085;28;20311;-78
2023/04/12 08:36:39;;;;;;;;;;;;;;;;;;5085394;28;19920;-78
2023/04/12 08:39:25;;;;;;;;;;;;;;;;;;5083362;28;19932;-79
2023/04/12 08:42:12;;;;;;;;;;;;;;;;;;5089846;28;19924;-78
2023/04/12 08:44:58;;;;;;;;;;;;;;;;;;5082629;28;19924;-79
2023/04/12 08:47:45;;;;;;;;;;;;;;;;;;5072079;28;19942;-78
2023/04/12 08:50:31;;;;;;;;;;;;;;;;;;5086964;28;19920;-78
2023/04/12 08:53:18;;;;;;;;;;;;;;;;;;5068054;28;19916;-78
2023/04/12 08:56:05;;;;;;;;;;;;;;;;;;5055354;28;20268;-78
2023/04/12 08:58:51;;;;;;;;;;;;;;;;;;5067338;28;19947;-77
2023/04/12 09:01:38;;;;;;;;;;;;;;;;;;5083090;28;19912;-78
2023/04/12 09:04:25;;;;;;;;;;;;;;;;;;5086460;28;19946;-77
2023/04/12 09:07:11;;;;;;;;;;;;;;;;;;5082287;28;19920;-78
2023/04/12 09:09:58;;;;;;;;;;;;;;;;;;5085785;28;19922;-79
2023/04/12 09:12:45;;;;;;;;;;;;;;;;;;5078138;28;19917;-78
2023/04/12 09:15:32;;;;;;;;;;;;;;;;;;5079014;28;20468;-78
2023/04/12 09:18:18;;;;;;;;;;;;;;;;;;5084320;28;19919;-78
2023/04/12 09:21:05;;;;;;;;;;;;;;;;;;5083017;28;20279;-78
2023/04/12 09:23:51;;;;;;;;;;;;;;;;;;5088145;28;19957;-78
2023/04/12 09:26:39;;;;;;;;;;;;;;;;;;5081314;28;19932;-78
2023/04/12 09:29:25;;;;;;;;;;;;;;;;;;5075306;28;19924;-78
2023/04/12 09:32:11;;;;;;;;;;;;;;;;;;5092053;28;20291;-79
2023/04/12 09:35:00;;;;;;;;;;;;;;;;;;5069455;28;19918;-78
2023/04/12 09:37:46;;;;;;;;;;;;;;;;;;5091661;28;19924;-78
2023/04/12 09:40:35;;;;;;;;;;;;;;;;;;5074575;28;20375;-79
2023/04/12 09:43:21;;;;;;;;;;;;;;;;;;5087850;28;19920;-78
2023/04/12 09:46:08;;;;;;;;;;;;;;;;;;5089262;28;20458;-78
2023/04/12 09:48:54;;;;;;;;;;;;;;;;;;5094241;28;19916;-79
2023/04/12 09:51:41;;;;;;;;;;;;;;;;;;5068221;28;19931;-78
2023/04/12 09:54:27;;;;;;;;;;;;;;;;;;5089490;28;19923;-78
2023/04/12 09:57:14;;;;;;;;;;;;;;;;;;5083095;28;19924;-79
2023/04/12 10:00:00;;;;;;;;;;;;;;;;;;5069584;28;20322;-79
2023/04/12 10:02:47;;;;;;;;;;;;;;;;;;5089597;28;19918;-78
2023/04/12 10:05:34;;;;;;;;;;;;;;;;;;5085217;28;20029;-80
2023/04/12 10:08:29;;;;;;;;;;;;;;;;;;5089240;28;19927;-80
2023/04/12 10:11:16;;;;;;;;;;;;;;;;;;5048370;28;19942;-79
2023/04/12 10:14:02;;;;;;;;;;;;;;;;;;5095914;28;20318;-77
2023/04/12 10:16:49;;;;;;;;;;;;;;;;;;5060866;28;20325;-78
2023/04/12 10:19:35;;;;;;;;;;;;;;;;;;5068393;28;20322;-78
2023/04/12 10:22:22;;;;;;;;;;;;;;;;;;5086548;28;19935;-78
2023/04/12 10:25:08;;;;;;;;;;;;;;;;;;5079836;28;19920;-78
2023/04/12 10:27:55;;;;;;;;;;;;;;;;;;5084405;28;19956;-78
2023/04/12 10:30:42;;;;;;;;;;;;;;;;;;5082332;28;20386;-78
2023/04/12 10:33:29;;;;;;;;;;;;;;;;;;5085936;28;19924;-79
2023/04/12 10:36:15;;;;;;;;;;;;;;;;;;5088451;28;19920;-77
2023/04/12 10:39:02;;;;;;;;;;;;;;;;;;5071748;28;19959;-78
2023/04/12 10:41:50;;;;;;;;;;;;;;;;;;5068808;28;20403;-77
2023/04/12 10:44:36;;;;;;;;;;;;;;;;;;5080684;28;20351;-78
2023/04/12 10:47:23;;;;;;;;;;;;;;;;;;5079962;28;19946;-78
2023/04/12 10:50:09;;;;;;;;;;;;;;;;;;5080534;28;20268;-78
2023/04/12 10:52:56;;;;;;;;;;;;;;;;;;5073160;28;19923;-78
2023/04/12 10:55:43;;;;;;;;;;;;;;;;;;5083198;28;20611;-78
2023/04/12 10:58:29;;;;;;;;;;;;;;;;;;5082963;28;19923;-78
2023/04/12 11:01:17;;;;;;;;;;;;;;;;;;5086204;28;20006;-78
2023/04/12 11:04:03;;;;;;;;;;;;;;;;;;5078330;28;20003;-78
2023/04/12 11:06:50;;;;;;;;;;;;;;;;;;5068078;28;19928;-78
2023/04/12 11:09:36;;;;;;;;;;;;;;;;;;5069232;28;20367;-78
2023/04/12 11:12:23;;;;;;;;;;;;;;;;;;5077488;28;19912;-77
2023/04/12 11:15:09;;;;;;;;;;;;;;;;;;5066207;28;20302;-79
2023/04/12 11:17:56;;;;;;;;;;;;;;;;;;5053194;28;19917;-78
2023/04/12 11:20:42;;;;;;;;;;;;;;;;;;5075011;28;19922;-78
2023/04/12 11:23:29;;;;;;;;;;;;;;;;;;5074201;28;19919;-78
2023/04/12 11:26:15;;;;;;;;;;;;;;;;;;5071391;28;19928;-78
2023/04/12 11:29:02;;;;;;;;;;;;;;;;;;5066734;28;19942;-79
2023/04/12 11:31:48;;;;;;;;;;;;;;;;;;5080747;28;19919;-78
2023/04/12 11:34:35;;;;;;;;;;;;;;;;;;5068993;28;19927;-77
2023/04/12 11:37:21;;;;;;;;;;;;;;;;;;5089864;28;19919;-78
2023/04/12 11:40:08;;;;;;;;;;;;;;;;;;5078139;28;20381;-78
2023/04/12 11:42:56;;;;;;;;;;;;;;;;;;5085300;28;20422;-77
2023/04/12 11:45:43;;;;;;;;;;;;;;;;;;5078423;28;21599;-79
2023/04/12 11:48:30;;;;;;;;;;;;;;;;;;5081791;28;19916;-79
2023/04/12 11:51:16;;;;;;;;;;;;;;;;;;5071662;28;19920;-79
2023/04/12 11:54:03;;;;;;;;;;;;;;;;;;5060949;28;20326;-78
2023/04/12 11:56:49;;;;;;;;;;;;;;;;;;5081327;28;19920;-79
2023/04/12 11:59:36;;;;;;;;;;;;;;;;;;5071346;28;20389;-78
2023/04/12 12:02:22;;;;;;;;;;;;;;;;;;5088883;28;19916;-77
2023/04/12 12:05:09;;;;;;;;;;;;;;;;;;5075667;28;19924;-77
2023/04/12 12:07:55;;;;;;;;;;;;;;;;;;5078194;28;20398;-78
2023/04/12 12:10:42;;;;;;;;;;;;;;;;;;5066130;28;19927;-78
2023/04/12 12:13:28;;;;;;;;;;;;;;;;;;5075591;28;19912;-78
2023/04/12 12:16:15;;;;;;;;;;;;;;;;;;5058369;28;19927;-77
2023/04/12 12:19:01;;;;;;;;;;;;;;;;;;5061575;28;19916;-78
2023/04/12 12:21:48;;;;;;;;;;;;;;;;;;5075597;28;19926;-78
2023/04/12 12:24:35;;;;;;;;;;;;;;;;;;5081591;28;19922;-78
2023/04/12 12:27:21;;;;;;;;;;;;;;;;;;5076345;28;20331;-79
2023/04/12 12:30:08;;;;;;;;;;;;;;;;;;5082703;28;19923;-77
2023/04/12 12:32:55;;;;;;;;;;;;;;;;;;5083786;28;20041;-77
2023/04/12 12:35:42;;;;;;;;;;;;;;;;;;5070777;28;20125;-78
2023/04/12 12:38:28;;;;;;;;;;;;;;;;;;5074118;28;19935;-78
2023/04/12 12:41:15;;;;;;;;;;;;;;;;;;5067306;28;20304;-79
2023/04/12 12:44:01;;;;;;;;;;;;;;;;;;5086802;28;19926;-78
2023/04/12 12:46:48;;;;;;;;;;;;;;;;;;5085718;28;19928;-79
2023/04/12 12:49:34;;;;;;;;;;;;;;;;;;5076921;28;19920;-78
2023/04/12 12:52:21;;;;;;;;;;;;;;;;;;5070312;28;19920;-78
2023/04/12 12:55:07;;;;;;;;;;;;;;;;;;5070540;28;19923;-78
2023/04/12 12:57:54;;;;;;;;;;;;;;;;;;5053754;28;20363;-79
2023/04/12 13:00:41;;;;;;;;;;;;;;;;;;5077568;28;19920;-79
2023/04/12 13:03:27;;;;;;;;;;;;;;;;;;5068621;28;19916;-78
2023/04/12 13:06:14;;;;;;;;;;;;;;;;;;5083638;28;19928;-79
2023/04/12 13:09:00;;;;;;;;;;;;;;;;;;5065746;28;19943;-79
2023/04/12 13:11:47;;;;;;;;;;;;;;;;;;5073058;28;20577;-79
2023/04/12 13:14:33;;;;;;;;;;;;;;;;;;5086777;28;19923;-78
2023/04/12 13:17:20;;;;;;;;;;;;;;;;;;5077977;28;19927;-77
2023/04/12 13:20:07;;;;;;;;;;;;;;;;;;5071951;28;19939;-76
2023/04/12 13:22:54;;;;;;;;;;;;;;;;;;5078275;28;19916;-76
2023/04/12 13:25:40;;;;;;;;;;;;;;;;;;5073653;28;19924;-79
2023/04/12 13:28:26;;;;;;;;;;;;;;;;;;5080959;28;19920;-77
2023/04/12 13:31:13;;;;;;;;;;;;;;;;;;5080362;28;19920;-77
2023/04/12 13:33:59;;;;;;;;;;;;;;;;;;5071400;28;20287;-77
2023/04/12 13:36:46;;;;;;;;;;;;;;;;;;5069521;28;20412;-77
2023/04/12 13:39:34;;;;;;;;;;;;;;;;;;5074992;28;19931;-78
2023/04/12 13:42:21;;;;;;;;;;;;;;;;;;5067903;28;20310;-77
2023/04/12 13:45:09;;;;;;;;;;;;;;;;;;5087023;28;19916;-77
2023/04/12 13:47:56;;;;;;;;;;;;;;;;;;5061496;28;19917;-78
2023/04/12 13:50:42;;;;;;;;;;;;;;;;;;5070370;28;19917;-78
2023/04/12 13:53:29;;;;;;;;;;;;;;;;;;5072509;28;20283;-78
2023/04/12 13:56:16;;;;;;;;;;;;;;;;;;5074940;28;19931;-78
2023/04/12 13:59:02;;;;;;;;;;;;;;;;;;5078630;28;19916;-78
2023/04/12 14:01:49;;;;;;;;;;;;;;;;;;5085739;28;20520;-78
2023/04/12 14:04:35;;;;;;;;;;;;;;;;;;5070042;28;19927;-77
2023/04/12 14:07:23;;;;;;;;;;;;;;;;;;5066382;28;19932;-77
2023/04/12 14:10:09;;;;;;;;;;;;;;;;;;5072631;28;19916;-77
2023/04/12 14:12:56;;;;;;;;;;;;;;;;;;5084137;28;20370;-77
2023/04/12 14:15:42;;;;;;;;;;;;;;;;;;5082889;28;20417;-78
2023/04/12 14:18:29;;;;;;;;;;;;;;;;;;5069100;28;19927;-78
2023/04/12 14:21:18;;;;;;;;;;;;;;;;;;5053507;28;19935;-78
2023/04/12 14:24:04;;;;;;;;;;;;;;;;;;5063970;28;19932;-77
2023/04/12 14:26:52;;;;;;;;;;;;;;;;;;5072292;28;19948;-77
2023/04/12 14:29:38;;;;;;;;;;;;;;;;;;5075686;28;19916;-77
2023/04/12 14:32:25;;;;;;;;;;;;;;;;;;5074747;28;19932;-78
2023/04/12 14:35:12;;;;;;;;;;;;;;;;;;5072169;28;19921;-77
2023/04/12 14:37:58;;;;;;;;;;;;;;;;;;5082085;28;19924;-78
2023/04/12 14:40:45;;;;;;;;;;;;;;;;;;5087477;28;19927;-78
2023/04/12 14:43:31;;;;;;;;;;;;;;;;;;5079435;28;19950;-79
2023/04/12 14:46:18;;;;;;;;;;;;;;;;;;5081446;28;20479;-79
2023/04/12 14:49:05;;;;;;;;;;;;;;;;;;5079091;28;19916;-78
2023/04/12 14:51:51;;;;;;;;;;;;;;;;;;5086502;28;19916;-77
2023/04/12 14:54:38;;;;;;;;;;;;;;;;;;5064551;28;19920;-78
2023/04/12 14:57:24;;;;;;;;;;;;;;;;;;5070976;28;19996;-78
2023/04/12 15:00:15;;;;;;;;;;;;;;;;;;5061290;28;20655;-78
2023/04/12 15:03:01;;;;;;;;;;;;;;;;;;5064335;28;19920;-77
2023/04/12 15:05:48;;;;;;;;;;;;;;;;;;5068753;28;19931;-79
2023/04/12 15:08:40;;;;;;;;;;;;;;;;;;5068001;28;19916;-78
2023/04/12 15:11:26;;;;;;;;;;;;;;;;;;5058737;28;19920;-77
2023/04/12 15:14:19;;;;;;;;;;;;;;;;;;5072909;28;19923;-78
2023/04/12 15:17:06;;;;;;;;;;;;;;;;;;5057907;28;20264;-79
2023/04/12 15:19:52;;;;;;;;;;;;;;;;;;5069816;28;19931;-79
2023/04/12 15:22:39;;;;;;;;;;;;;;;;;;5062117;28;19924;-81
2023/04/12 15:25:26;;;;;;;;;;;;;;;;;;5065687;28;19928;-81
2023/04/12 15:28:12;;;;;;;;;;;;;;;;;;5077163;28;19924;-80
2023/04/12 15:31:00;;;;;;;;;;;;;;;;;;5064938;28;19954;-81
2023/04/12 15:33:48;;;;;;;;;;;;;;;;;;5068559;28;19928;-80
2023/04/12 15:36:39;;;;;;;;;;;;;;;;;;5058344;28;19920;-79
2023/04/12 15:39:26;;;;;;;;;;;;;;;;;;5076763;28;20543;-77
2023/04/12 15:42:13;;;;;;;;;;;;;;;;;;5074209;28;19920;-79
2023/04/12 15:44:59;;;;;;;;;;;;;;;;;;5058245;28;19923;-78
2023/04/12 15:47:46;;;;;;;;;;;;;;;;;;5065134;28;19920;-77
2023/04/12 15:50:32;;;;;;;;;;;;;;;;;;5075390;28;19915;-77
2023/04/12 15:53:19;;;;;;;;;;;;;;;;;;5081197;28;20299;-79
2023/04/12 15:56:05;;;;;;;;;;;;;;;;;;5047287;28;19952;-79
2023/04/12 15:58:52;;;;;;;;;;;;;;;;;;5059081;28;20367;-79
2023/04/12 16:01:38;;;;;;;;;;;;;;;;;;5076365;28;19919;-78
2023/04/12 16:04:26;;;;;;;;;;;;;;;;;;5081506;28;19919;-80
2023/04/12 16:07:13;;;;;;;;;;;;;;;;;;5083732;28;20406;-79
2023/04/12 16:09:59;;;;;;;;;;;;;;;;;;5082092;28;19943;-78
2023/04/12 16:12:48;;;;;;;;;;;;;;;;;;5071824;28;19920;-79
2023/04/12 16:15:34;;;;;;;;;;;;;;;;;;5078075;28;19962;-80
2023/04/12 16:18:21;;;;;;;;;;;;;;;;;;5080437;28;20295;-78
2023/04/12 16:21:07;;;;;;;;;;;;;;;;;;5069311;28;19933;-78
2023/04/12 16:23:54;;;;;;;;;;;;;;;;;;5071973;28;19924;-80
2023/04/12 16:26:41;;;;;;;;;;;;;;;;;;5078096;28;19934;-80
2023/04/12 16:29:27;;;;;;;;;;;;;;;;;;5083709;28;19917;-80
2023/04/12 16:32:14;;;;;;;;;;;;;;;;;;5087070;28;19923;-79
2023/04/12 16:35:00;;;;;;;;;;;;;;;;;;5072172;28;19919;-79
2023/04/12 16:37:47;;;;;;;;;;;;;;;;;;5080100;28;19924;-79
2023/04/12 16:40:33;;;;;;;;;;;;;;;;;;5060163;28;20339;-79
2023/04/12 16:43:20;;;;;;;;;;;;;;;;;;5029154;28;19917;-79
2023/04/12 16:46:06;;;;;;;;;;;;;;;;;;5048254;28;19931;-79
2023/04/12 16:48:53;;;;;;;;;;;;;;;;;;5057350;28;19939;-78
2023/04/12 16:51:40;;;;;;;;;;;;;;;;;;5079215;28;19922;-79
2023/04/12 16:54:27;;;;;;;;;;;;;;;;;;5062842;28;19925;-79
2023/04/12 16:57:14;;;;;;;;;;;;;;;;;;5073371;28;19920;-78
2023/04/12 17:00:01;;;;;;;;;;;;;;;;;;5081883;28;20295;-77
2023/04/12 17:02:47;;;;;;;;;;;;;;;;;;5062362;28;19924;-79
2023/04/12 17:05:34;;;;;;;;;;;;;;;;;;5075101;28;19924;-79
2023/04/12 17:08:21;;;;;;;;;;;;;;;;;;5079855;28;19959;-80
2023/04/12 17:11:08;;;;;;;;;;;;;;;;;;5070757;28;20383;-78
2023/04/12 17:13:54;;;;;;;;;;;;;;;;;;5051375;28;19917;-77
2023/04/12 17:16:41;;;;;;;;;;;;;;;;;;5052958;28;19927;-78
2023/04/12 17:19:27;;;;;;;;;;;;;;;;;;5064668;28;20375;-79
2023/04/12 17:22:14;;;;;;;;;;;;;;;;;;5053040;28;19924;-79
2023/04/12 17:25:00;;;;;;;;;;;;;;;;;;5049027;28;20320;-77
2023/04/12 17:27:47;;;;;;;;;;;;;;;;;;5051688;28;19924;-80
2023/04/12 17:30:33;;;;;;;;;;;;;;;;;;5084727;28;20378;-80
2023/04/12 17:33:20;;;;;;;;;;;;;;;;;;5047435;28;19925;-78
2023/04/12 17:36:06;;;;;;;;;;;;;;;;;;5075469;28;19943;-79
2023/04/12 17:38:52;;;;;;;;;;;;;;;;;;5056517;28;20295;-79
2023/04/12 17:41:39;;;;;;;;;;;;;;;;;;5060304;28;19923;-79
2023/04/12 17:44:26;;;;;;;;;;;;;;;;;;5056382;28;19924;-79
2023/04/12 17:47:13;;;;;;;;;;;;;;;;;;5053168;28;19920;-78
2023/04/12 17:49:59;;;;;;;;;;;;;;;;;;5060373;28;19916;-77
2023/04/12 17:52:46;;;;;;;;;;;;;;;;;;5056982;28;19924;-79
2023/04/12 17:55:32;;;;;;;;;;;;;;;;;;5061790;28;20286;-78
2023/04/12 17:58:19;;;;;;;;;;;;;;;;;;5077176;28;19924;-78
2023/04/12 18:01:05;;;;;;;;;;;;;;;;;;5076479;28;19920;-79
2023/04/12 18:03:52;;;;;;;;;;;;;;;;;;5087057;28;20272;-78
2023/04/12 18:06:38;;;;;;;;;;;;;;;;;;5065992;28;20380;-79
2023/04/12 18:09:25;;;;;;;;;;;;;;;;;;5080752;28;19916;-79
2023/04/12 18:12:12;;;;;;;;;;;;;;;;;;5052779;28;19953;-79
2023/04/12 18:14:58;;;;;;;;;;;;;;;;;;5064363;28;19920;-78
2023/04/12 18:17:45;;;;;;;;;;;;;;;;;;5071059;28;19928;-79
2023/04/12 18:20:32;;;;;;;;;;;;;;;;;;5071798;28;19920;-80
2023/04/12 18:23:19;;;;;;;;;;;;;;;;;;5064695;28;19924;-79
2023/04/12 18:26:05;;;;;;;;;;;;;;;;;;5072540;28;19936;-79
2023/04/12 18:28:52;;;;;;;;;;;;;;;;;;5061014;28;19939;-79
2023/04/12 18:31:38;;;;;;;;;;;;;;;;;;5040958;28;19923;-79
2023/04/12 18:34:26;;;;;;;;;;;;;;;;;;5066880;28;19924;-78
2023/04/12 18:37:12;;;;;;;;;;;;;;;;;;5062007;28;19916;-78
2023/04/12 18:39:59;;;;;;;;;;;;;;;;;;5061343;28;19932;-78
2023/04/12 18:42:45;;;;;;;;;;;;;;;;;;5059479;28;19927;-79
2023/04/12 18:45:32;;;;;;;;;;;;;;;;;;5051981;28;19920;-80
2023/04/12 18:48:18;;;;;;;;;;;;;;;;;;5053915;28;19925;-79
2023/04/12 18:51:05;;;;;;;;;;;;;;;;;;5055053;28;20078;-79
2023/04/12 18:53:51;;;;;;;;;;;;;;;;;;5045681;28;19923;-79
2023/04/12 18:56:40;;;;;;;;;;;;;;;;;;5063024;28;19920;-79
2023/04/12 18:59:27;;;;;;;;;;;;;;;;;;5058252;28;19912;-79
2023/04/12 19:02:13;;;;;;;;;;;;;;;;;;5054098;28;20384;-79